sensor_id;sensor_type;location;lat;lon;timestamp;temperature;humidity
4687;DHT22;2357;47.316;-1.348;2023-04-24T00:01:27;10.90;99.90
4687;DHT22;2357;47.316;-1.348;2023-04-24T00:03:55;10.90;99.90
4687;DHT22;2357;47.316;-1.348;2023-04-24T00:06:25;11.00;99.90
4687;DHT22;2357;47.316;-1.348;2023-04-24T00:09:02;11.00;99.90
4687;DHT22;2357;47.316;-1.348;2023-04-24T00:11:28;11.00;99.90
4687;DHT22;2357;47.316;-1.348;2023-04-24T00:13:55;11.00;99.90
4687;DHT22;2357;47.316;-1.348;2023-04-24T00:16:21;11.10;99.90
4687;DHT22;2357;47.316;-1.348;2023-04-24T00:18:46;10.90;99.90
4687;DHT22;2357;47.316;-1.348;2023-04-24T00:21:13;11.00;99.90
4687;DHT22;2357;47.316;-1.348;2023-04-24T00:23:39;10.90;99.90
4687;DHT22;2357;47.316;-1.348;2023-04-24T00:26:04;10.90;99.90
4687;DHT22;2357;47.316;-1.348;2023-04-24T00:28:30;10.90;99.90
4687;DHT22;2357;47.316;-1.348;2023-04-24T00:30:56;11.00;99.90
4687;DHT22;2357;47.316;-1.348;2023-04-24T00:33:21;11.00;99.90
4687;DHT22;2357;47.316;-1.348;2023-04-24T00:35:47;11.00;99.90
4687;DHT22;2357;47.316;-1.348;2023-04-24T00:38:13;11.00;99.90
4687;DHT22;2357;47.316;-1.348;2023-04-24T00:40:38;11.00;99.90
4687;DHT22;2357;47.316;-1.348;2023-04-24T00:43:04;11.00;99.90
4687;DHT22;2357;47.316;-1.348;2023-04-24T00:45:30;11.00;99.90
4687;DHT22;2357;47.316;-1.348;2023-04-24T00:47:57;11.10;99.90
4687;DHT22;2357;47.316;-1.348;2023-04-24T00:50:24;10.80;99.90
4687;DHT22;2357;47.316;-1.348;2023-04-24T00:52:50;10.80;99.90
4687;DHT22;2357;47.316;-1.348;2023-04-24T00:55:16;10.80;99.90
4687;DHT22;2357;47.316;-1.348;2023-04-24T00:57:43;10.70;99.90
4687;DHT22;2357;47.316;-1.348;2023-04-24T01:00:09;10.70;99.90
4687;DHT22;2357;47.316;-1.348;2023-04-24T01:02:39;10.70;99.90
4687;DHT22;2357;47.316;-1.348;2023-04-24T01:05:09;10.70;99.90
4687;DHT22;2357;47.316;-1.348;2023-04-24T01:07:35;10.70;99.90
4687;DHT22;2357;47.316;-1.348;2023-04-24T01:10:02;10.70;99.90
4687;DHT22;2357;47.316;-1.348;2023-04-24T01:12:28;10.60;99.90
4687;DHT22;2357;47.316;-1.348;2023-04-24T01:14:54;10.60;99.90
4687;DHT22;2357;47.316;-1.348;2023-04-24T01:17:22;10.60;99.90
4687;DHT22;2357;47.316;-1.348;2023-04-24T01:19:47;10.50;99.90
4687;DHT22;2357;47.316;-1.348;2023-04-24T01:22:16;10.50;99.90
4687;DHT22;2357;47.316;-1.348;2023-04-24T01:24:42;10.40;99.90
4687;DHT22;2357;47.316;-1.348;2023-04-24T01:27:09;10.40;99.90
4687;DHT22;2357;47.316;-1.348;2023-04-24T01:29:36;10.40;99.90
4687;DHT22;2357;47.316;-1.348;2023-04-24T01:32:03;10.40;99.90
4687;DHT22;2357;47.316;-1.348;2023-04-24T01:34:29;10.40;99.90
4687;DHT22;2357;47.316;-1.348;2023-04-24T01:36:54;10.40;99.90
4687;DHT22;2357;47.316;-1.348;2023-04-24T01:39:21;10.30;99.90
4687;DHT22;2357;47.316;-1.348;2023-04-24T01:41:49;10.30;99.90
4687;DHT22;2357;47.316;-1.348;2023-04-24T01:44:16;10.30;99.90
4687;DHT22;2357;47.316;-1.348;2023-04-24T01:46:42;10.20;99.90
4687;DHT22;2357;47.316;-1.348;2023-04-24T01:49:07;10.20;99.90
4687;DHT22;2357;47.316;-1.348;2023-04-24T01:51:33;10.20;99.90
4687;DHT22;2357;47.316;-1.348;2023-04-24T01:53:59;10.20;99.90
4687;DHT22;2357;47.316;-1.348;2023-04-24T01:56:25;10.20;99.90
4687;DHT22;2357;47.316;-1.348;2023-04-24T01:58:52;10.20;99.90
4687;DHT22;2357;47.316;-1.348;2023-04-24T02:01:23;10.20;99.90
4687;DHT22;2357;47.316;-1.348;2023-04-24T02:03:49;10.00;99.90
4687;DHT22;2357;47.316;-1.348;2023-04-24T02:06:15;10.00;99.90
4687;DHT22;2357;47.316;-1.348;2023-04-24T02:08:41;10.10;99.90
4687;DHT22;2357;47.316;-1.348;2023-04-24T02:11:08;10.00;99.90
4687;DHT22;2357;47.316;-1.348;2023-04-24T02:13:34;10.00;99.90
4687;DHT22;2357;47.316;-1.348;2023-04-24T02:15:59;10.00;99.90
4687;DHT22;2357;47.316;-1.348;2023-04-24T02:18:25;10.00;99.90
4687;DHT22;2357;47.316;-1.348;2023-04-24T02:20:50;9.90;99.90
4687;DHT22;2357;47.316;-1.348;2023-04-24T02:23:16;9.80;99.90
4687;DHT22;2357;47.316;-1.348;2023-04-24T02:25:42;9.90;99.90
4687;DHT22;2357;47.316;-1.348;2023-04-24T02:28:07;9.90;99.90
4687;DHT22;2357;47.316;-1.348;2023-04-24T02:30:33;9.90;99.90
4687;DHT22;2357;47.316;-1.348;2023-04-24T02:32:58;9.90;99.90
4687;DHT22;2357;47.316;-1.348;2023-04-24T02:35:24;9.90;99.90
4687;DHT22;2357;47.316;-1.348;2023-04-24T02:37:50;9.80;99.90
4687;DHT22;2357;47.316;-1.348;2023-04-24T02:40:15;9.90;99.90
4687;DHT22;2357;47.316;-1.348;2023-04-24T02:42:41;9.80;99.90
4687;DHT22;2357;47.316;-1.348;2023-04-24T02:45:07;9.80;99.90
4687;DHT22;2357;47.316;-1.348;2023-04-24T02:47:39;9.80;99.90
4687;DHT22;2357;47.316;-1.348;2023-04-24T02:50:06;9.80;99.90
4687;DHT22;2357;47.316;-1.348;2023-04-24T02:52:31;9.80;99.90
4687;DHT22;2357;47.316;-1.348;2023-04-24T02:54:57;10.00;99.90
4687;DHT22;2357;47.316;-1.348;2023-04-24T02:57:23;10.00;99.90
4687;DHT22;2357;47.316;-1.348;2023-04-24T02:59:48;10.10;99.90
4687;DHT22;2357;47.316;-1.348;2023-04-24T03:02:14;10.10;99.90
4687;DHT22;2357;47.316;-1.348;2023-04-24T03:04:40;10.20;99.90
4687;DHT22;2357;47.316;-1.348;2023-04-24T03:07:08;10.20;99.90
4687;DHT22;2357;47.316;-1.348;2023-04-24T03:09:33;10.20;99.90
4687;DHT22;2357;47.316;-1.348;2023-04-24T03:11:59;10.20;99.90
4687;DHT22;2357;47.316;-1.348;2023-04-24T03:14:25;10.30;99.90
4687;DHT22;2357;47.316;-1.348;2023-04-24T03:16:51;10.20;99.90
4687;DHT22;2357;47.316;-1.348;2023-04-24T03:19:17;10.30;99.90
4687;DHT22;2357;47.316;-1.348;2023-04-24T03:21:42;10.20;99.90
4687;DHT22;2357;47.316;-1.348;2023-04-24T03:24:08;10.30;99.90
4687;DHT22;2357;47.316;-1.348;2023-04-24T03:26:35;10.30;99.90
4687;DHT22;2357;47.316;-1.348;2023-04-24T03:29:01;10.30;99.90
4687;DHT22;2357;47.316;-1.348;2023-04-24T03:31:26;10.30;99.90
4687;DHT22;2357;47.316;-1.348;2023-04-24T03:33:52;10.30;99.90
4687;DHT22;2357;47.316;-1.348;2023-04-24T03:36:18;10.20;99.90
4687;DHT22;2357;47.316;-1.348;2023-04-24T03:38:44;10.30;99.90
4687;DHT22;2357;47.316;-1.348;2023-04-24T03:41:10;10.30;99.90
4687;DHT22;2357;47.316;-1.348;2023-04-24T03:43:37;10.30;99.90
4687;DHT22;2357;47.316;-1.348;2023-04-24T03:46:03;10.30;99.90
4687;DHT22;2357;47.316;-1.348;2023-04-24T03:48:29;10.30;99.90
4687;DHT22;2357;47.316;-1.348;2023-04-24T03:50:54;10.40;99.90
4687;DHT22;2357;47.316;-1.348;2023-04-24T03:53:20;10.40;99.90
4687;DHT22;2357;47.316;-1.348;2023-04-24T03:55:46;10.40;99.90
4687;DHT22;2357;47.316;-1.348;2023-04-24T03:58:11;10.40;99.90
4687;DHT22;2357;47.316;-1.348;2023-04-24T04:00:39;10.40;99.90
4687;DHT22;2357;47.316;-1.348;2023-04-24T04:03:05;10.20;99.90
4687;DHT22;2357;47.316;-1.348;2023-04-24T04:05:31;10.30;99.90
4687;DHT22;2357;47.316;-1.348;2023-04-24T04:07:57;10.30;99.90
4687;DHT22;2357;47.316;-1.348;2023-04-24T04:10:23;10.30;99.90
4687;DHT22;2357;47.316;-1.348;2023-04-24T04:12:48;10.30;99.90
4687;DHT22;2357;47.316;-1.348;2023-04-24T04:15:14;10.40;99.90
4687;DHT22;2357;47.316;-1.348;2023-04-24T04:17:40;10.40;99.90
4687;DHT22;2357;47.316;-1.348;2023-04-24T04:20:06;10.40;99.90
4687;DHT22;2357;47.316;-1.348;2023-04-24T04:22:38;10.40;99.90
4687;DHT22;2357;47.316;-1.348;2023-04-24T04:25:04;10.40;99.90
4687;DHT22;2357;47.316;-1.348;2023-04-24T04:27:30;10.40;99.90
4687;DHT22;2357;47.316;-1.348;2023-04-24T04:29:58;10.40;99.90
4687;DHT22;2357;47.316;-1.348;2023-04-24T04:32:26;10.50;99.90
4687;DHT22;2357;47.316;-1.348;2023-04-24T04:34:52;10.40;99.90
4687;DHT22;2357;47.316;-1.348;2023-04-24T04:37:18;10.40;99.90
4687;DHT22;2357;47.316;-1.348;2023-04-24T04:39:44;10.40;99.90
4687;DHT22;2357;47.316;-1.348;2023-04-24T04:42:10;10.40;99.90
4687;DHT22;2357;47.316;-1.348;2023-04-24T04:44:35;10.40;99.90
4687;DHT22;2357;47.316;-1.348;2023-04-24T04:47:02;10.40;99.90
4687;DHT22;2357;47.316;-1.348;2023-04-24T04:49:31;10.40;99.90
4687;DHT22;2357;47.316;-1.348;2023-04-24T04:51:57;10.20;99.90
4687;DHT22;2357;47.316;-1.348;2023-04-24T04:54:22;10.20;99.90
4687;DHT22;2357;47.316;-1.348;2023-04-24T04:56:50;10.30;99.90
4687;DHT22;2357;47.316;-1.348;2023-04-24T04:59:16;10.20;99.90
4687;DHT22;2357;47.316;-1.348;2023-04-24T05:01:41;10.30;99.90
4687;DHT22;2357;47.316;-1.348;2023-04-24T05:04:07;10.30;99.90
4687;DHT22;2357;47.316;-1.348;2023-04-24T05:06:32;10.30;99.90
4687;DHT22;2357;47.316;-1.348;2023-04-24T05:08:58;10.30;99.90
4687;DHT22;2357;47.316;-1.348;2023-04-24T05:11:24;10.30;99.90
4687;DHT22;2357;47.316;-1.348;2023-04-24T05:13:49;10.40;99.90
4687;DHT22;2357;47.316;-1.348;2023-04-24T05:16:15;10.40;99.90
4687;DHT22;2357;47.316;-1.348;2023-04-24T05:18:41;10.40;99.90
4687;DHT22;2357;47.316;-1.348;2023-04-24T05:21:06;10.40;99.90
4687;DHT22;2357;47.316;-1.348;2023-04-24T05:23:32;10.40;99.90
4687;DHT22;2357;47.316;-1.348;2023-04-24T05:25:57;10.40;99.90
4687;DHT22;2357;47.316;-1.348;2023-04-24T05:28:23;10.40;99.90
4687;DHT22;2357;47.316;-1.348;2023-04-24T05:30:48;10.40;99.90
4687;DHT22;2357;47.316;-1.348;2023-04-24T05:33:15;10.40;99.90
4687;DHT22;2357;47.316;-1.348;2023-04-24T05:35:40;10.40;99.90
4687;DHT22;2357;47.316;-1.348;2023-04-24T05:38:12;10.30;99.90
4687;DHT22;2357;47.316;-1.348;2023-04-24T05:40:38;10.40;99.90
4687;DHT22;2357;47.316;-1.348;2023-04-24T05:43:04;10.40;99.90
4687;DHT22;2357;47.316;-1.348;2023-04-24T05:45:30;10.50;99.90
4687;DHT22;2357;47.316;-1.348;2023-04-24T05:47:56;10.50;99.90
4687;DHT22;2357;47.316;-1.348;2023-04-24T05:50:21;10.50;99.90
4687;DHT22;2357;47.316;-1.348;2023-04-24T05:52:47;10.50;99.90
4687;DHT22;2357;47.316;-1.348;2023-04-24T05:55:13;10.60;99.90
4687;DHT22;2357;47.316;-1.348;2023-04-24T05:57:39;10.60;99.90
4687;DHT22;2357;47.316;-1.348;2023-04-24T06:00:05;10.70;99.90
4687;DHT22;2357;47.316;-1.348;2023-04-24T06:02:31;10.60;99.90
4687;DHT22;2357;47.316;-1.348;2023-04-24T06:04:58;10.70;99.90
4687;DHT22;2357;47.316;-1.348;2023-04-24T06:07:25;10.60;99.90
4687;DHT22;2357;47.316;-1.348;2023-04-24T06:09:52;10.30;99.90
4687;DHT22;2357;47.316;-1.348;2023-04-24T06:12:17;10.40;99.90
4687;DHT22;2357;47.316;-1.348;2023-04-24T06:14:43;10.50;99.90
4687;DHT22;2357;47.316;-1.348;2023-04-24T06:17:09;10.60;99.90
4687;DHT22;2357;47.316;-1.348;2023-04-24T06:19:35;10.60;99.90
4687;DHT22;2357;47.316;-1.348;2023-04-24T06:22:00;10.70;99.90
4687;DHT22;2357;47.316;-1.348;2023-04-24T06:24:29;10.90;99.90
4687;DHT22;2357;47.316;-1.348;2023-04-24T06:26:55;11.10;99.90
4687;DHT22;2357;47.316;-1.348;2023-04-24T06:29:22;11.30;99.90
4687;DHT22;2357;47.316;-1.348;2023-04-24T06:31:47;11.40;99.90
4687;DHT22;2357;47.316;-1.348;2023-04-24T06:34:13;11.40;99.90
4687;DHT22;2357;47.316;-1.348;2023-04-24T06:36:39;11.40;99.90
4687;DHT22;2357;47.316;-1.348;2023-04-24T06:39:04;11.50;99.90
4687;DHT22;2357;47.316;-1.348;2023-04-24T06:41:30;11.50;99.90
4687;DHT22;2357;47.316;-1.348;2023-04-24T06:43:56;11.40;99.90
4687;DHT22;2357;47.316;-1.348;2023-04-24T06:46:22;11.20;99.90
4687;DHT22;2357;47.316;-1.348;2023-04-24T06:48:49;11.20;99.90
4687;DHT22;2357;47.316;-1.348;2023-04-24T06:51:16;11.30;99.90
4687;DHT22;2357;47.316;-1.348;2023-04-24T06:53:43;11.20;99.90
4687;DHT22;2357;47.316;-1.348;2023-04-24T06:56:09;11.30;99.90
4687;DHT22;2357;47.316;-1.348;2023-04-24T06:58:34;11.30;99.90
4687;DHT22;2357;47.316;-1.348;2023-04-24T07:01:00;11.40;99.90
4687;DHT22;2357;47.316;-1.348;2023-04-24T07:03:26;11.50;99.90
4687;DHT22;2357;47.316;-1.348;2023-04-24T07:05:51;11.40;99.90
4687;DHT22;2357;47.316;-1.348;2023-04-24T07:08:18;11.50;99.90
4687;DHT22;2357;47.316;-1.348;2023-04-24T07:10:45;11.50;99.90
4687;DHT22;2357;47.316;-1.348;2023-04-24T07:13:11;11.60;99.90
4687;DHT22;2357;47.316;-1.348;2023-04-24T07:15:37;11.60;99.90
4687;DHT22;2357;47.316;-1.348;2023-04-24T07:18:02;11.90;99.90
4687;DHT22;2357;47.316;-1.348;2023-04-24T07:20:28;11.90;99.90
4687;DHT22;2357;47.316;-1.348;2023-04-24T07:22:54;11.90;99.90
4687;DHT22;2357;47.316;-1.348;2023-04-24T07:25:20;11.90;99.90
4687;DHT22;2357;47.316;-1.348;2023-04-24T07:27:45;12.00;99.90
4687;DHT22;2357;47.316;-1.348;2023-04-24T07:30:11;11.90;99.90
4687;DHT22;2357;47.316;-1.348;2023-04-24T07:32:37;12.00;99.90
4687;DHT22;2357;47.316;-1.348;2023-04-24T07:35:03;12.10;99.90
4687;DHT22;2357;47.316;-1.348;2023-04-24T07:37:28;12.20;99.90
4687;DHT22;2357;47.316;-1.348;2023-04-24T07:39:54;12.10;99.90
4687;DHT22;2357;47.316;-1.348;2023-04-24T07:42:20;12.10;99.90
4687;DHT22;2357;47.316;-1.348;2023-04-24T07:44:46;12.20;99.90
4687;DHT22;2357;47.316;-1.348;2023-04-24T07:47:13;12.10;99.90
4687;DHT22;2357;47.316;-1.348;2023-04-24T07:49:41;12.20;99.90
4687;DHT22;2357;47.316;-1.348;2023-04-24T07:52:07;12.30;99.90
4687;DHT22;2357;47.316;-1.348;2023-04-24T07:54:33;12.30;99.90
4687;DHT22;2357;47.316;-1.348;2023-04-24T07:56:58;12.30;99.90
4687;DHT22;2357;47.316;-1.348;2023-04-24T07:59:25;12.40;99.90
4687;DHT22;2357;47.316;-1.348;2023-04-24T08:01:51;12.50;99.90
4687;DHT22;2357;47.316;-1.348;2023-04-24T08:04:16;12.70;99.90
4687;DHT22;2357;47.316;-1.348;2023-04-24T08:06:43;12.80;99.90
4687;DHT22;2357;47.316;-1.348;2023-04-24T08:09:09;12.80;99.90
4687;DHT22;2357;47.316;-1.348;2023-04-24T08:11:35;12.90;99.90
4687;DHT22;2357;47.316;-1.348;2023-04-24T08:14:00;13.00;99.90
4687;DHT22;2357;47.316;-1.348;2023-04-24T08:16:27;12.90;99.90
4687;DHT22;2357;47.316;-1.348;2023-04-24T08:18:53;13.00;99.90
4687;DHT22;2357;47.316;-1.348;2023-04-24T08:21:19;13.10;99.90
4687;DHT22;2357;47.316;-1.348;2023-04-24T08:23:46;12.90;99.90
4687;DHT22;2357;47.316;-1.348;2023-04-24T08:26:12;12.80;99.90
4687;DHT22;2357;47.316;-1.348;2023-04-24T08:28:38;12.90;99.90
4687;DHT22;2357;47.316;-1.348;2023-04-24T08:31:04;13.00;99.90
4687;DHT22;2357;47.316;-1.348;2023-04-24T08:33:29;12.90;99.90
4687;DHT22;2357;47.316;-1.348;2023-04-24T08:36:06;13.00;99.90
4687;DHT22;2357;47.316;-1.348;2023-04-24T08:38:33;13.00;99.90
4687;DHT22;2357;47.316;-1.348;2023-04-24T08:41:00;12.90;99.90
4687;DHT22;2357;47.316;-1.348;2023-04-24T08:43:27;12.80;99.90
4687;DHT22;2357;47.316;-1.348;2023-04-24T08:45:55;12.70;99.90
4687;DHT22;2357;47.316;-1.348;2023-04-24T08:48:22;12.80;99.90
4687;DHT22;2357;47.316;-1.348;2023-04-24T08:50:50;12.70;99.90
4687;DHT22;2357;47.316;-1.348;2023-04-24T08:53:18;12.70;99.90
4687;DHT22;2357;47.316;-1.348;2023-04-24T08:55:47;12.70;99.90
4687;DHT22;2357;47.316;-1.348;2023-04-24T08:58:14;12.80;99.90
4687;DHT22;2357;47.316;-1.348;2023-04-24T09:00:40;12.90;99.90
4687;DHT22;2357;47.316;-1.348;2023-04-24T09:03:13;12.90;99.90
4687;DHT22;2357;47.316;-1.348;2023-04-24T09:05:40;13.00;99.90
4687;DHT22;2357;47.316;-1.348;2023-04-24T09:08:10;13.00;99.90
4687;DHT22;2357;47.316;-1.348;2023-04-24T09:10:39;13.10;99.90
4687;DHT22;2357;47.316;-1.348;2023-04-24T09:13:05;13.20;99.90
4687;DHT22;2357;47.316;-1.348;2023-04-24T09:15:31;13.20;99.90
4687;DHT22;2357;47.316;-1.348;2023-04-24T09:17:57;13.10;99.90
4687;DHT22;2357;47.316;-1.348;2023-04-24T09:20:23;13.00;99.90
4687;DHT22;2357;47.316;-1.348;2023-04-24T09:22:54;13.00;99.90
4687;DHT22;2357;47.316;-1.348;2023-04-24T09:25:20;13.00;99.90
4687;DHT22;2357;47.316;-1.348;2023-04-24T09:27:46;13.00;99.90
4687;DHT22;2357;47.316;-1.348;2023-04-24T09:30:12;13.00;99.90
4687;DHT22;2357;47.316;-1.348;2023-04-24T09:32:39;12.90;99.90
4687;DHT22;2357;47.316;-1.348;2023-04-24T09:35:12;13.10;99.90
4687;DHT22;2357;47.316;-1.348;2023-04-24T09:40:15;13.00;99.90
4687;DHT22;2357;47.316;-1.348;2023-04-24T09:42:55;13.00;99.90
4687;DHT22;2357;47.316;-1.348;2023-04-24T09:45:22;13.00;99.90
4687;DHT22;2357;47.316;-1.348;2023-04-24T09:47:52;13.00;99.90
4687;DHT22;2357;47.316;-1.348;2023-04-24T09:50:21;13.00;99.90
4687;DHT22;2357;47.316;-1.348;2023-04-24T09:53:06;13.00;99.90
4687;DHT22;2357;47.316;-1.348;2023-04-24T09:55:39;13.00;99.90
4687;DHT22;2357;47.316;-1.348;2023-04-24T09:58:08;13.00;99.90
4687;DHT22;2357;47.316;-1.348;2023-04-24T10:00:34;13.00;99.90
4687;DHT22;2357;47.316;-1.348;2023-04-24T10:03:02;13.00;99.90
4687;DHT22;2357;47.316;-1.348;2023-04-24T10:05:37;13.10;99.90
4687;DHT22;2357;47.316;-1.348;2023-04-24T10:08:06;13.20;99.90
4687;DHT22;2357;47.316;-1.348;2023-04-24T10:10:33;13.20;99.90
4687;DHT22;2357;47.316;-1.348;2023-04-24T10:13:00;13.60;99.90
4687;DHT22;2357;47.316;-1.348;2023-04-24T10:15:27;13.70;99.90
4687;DHT22;2357;47.316;-1.348;2023-04-24T10:17:53;13.70;99.90
4687;DHT22;2357;47.316;-1.348;2023-04-24T10:20:23;13.50;99.90
4687;DHT22;2357;47.316;-1.348;2023-04-24T10:22:50;13.70;99.90
4687;DHT22;2357;47.316;-1.348;2023-04-24T10:25:22;13.80;99.90
4687;DHT22;2357;47.316;-1.348;2023-04-24T10:27:49;14.10;99.90
4687;DHT22;2357;47.316;-1.348;2023-04-24T10:30:16;14.40;99.90
4687;DHT22;2357;47.316;-1.348;2023-04-24T10:32:42;14.50;99.90
4687;DHT22;2357;47.316;-1.348;2023-04-24T10:35:09;14.60;99.90
4687;DHT22;2357;47.316;-1.348;2023-04-24T10:37:41;14.50;99.90
4687;DHT22;2357;47.316;-1.348;2023-04-24T10:40:09;14.40;99.90
4687;DHT22;2357;47.316;-1.348;2023-04-24T10:42:39;14.20;99.90
4687;DHT22;2357;47.316;-1.348;2023-04-24T10:45:19;14.20;99.90
4687;DHT22;2357;47.316;-1.348;2023-04-24T10:48:07;14.00;99.90
4687;DHT22;2357;47.316;-1.348;2023-04-24T10:53:14;13.90;99.90
4687;DHT22;2357;47.316;-1.348;2023-04-24T10:58:15;13.70;99.90
4687;DHT22;2357;47.316;-1.348;2023-04-24T11:00:43;13.60;99.90
4687;DHT22;2357;47.316;-1.348;2023-04-24T11:03:24;13.70;99.90
4687;DHT22;2357;47.316;-1.348;2023-04-24T11:05:56;13.80;99.90
4687;DHT22;2357;47.316;-1.348;2023-04-24T11:08:30;13.70;99.90
4687;DHT22;2357;47.316;-1.348;2023-04-24T11:11:10;13.70;99.90
4687;DHT22;2357;47.316;-1.348;2023-04-24T11:16:28;13.70;99.90
4687;DHT22;2357;47.316;-1.348;2023-04-24T11:19:29;13.80;99.90
4687;DHT22;2357;47.316;-1.348;2023-04-24T11:22:00;13.80;99.90
4687;DHT22;2357;47.316;-1.348;2023-04-24T11:27:19;13.90;99.90
4687;DHT22;2357;47.316;-1.348;2023-04-24T11:32:47;13.90;99.90
4687;DHT22;2357;47.316;-1.348;2023-04-24T11:35:22;14.00;99.90
4687;DHT22;2357;47.316;-1.348;2023-04-24T11:37:54;14.10;99.90
4687;DHT22;2357;47.316;-1.348;2023-04-24T11:40:20;14.30;99.90
4687;DHT22;2357;47.316;-1.348;2023-04-24T11:42:49;14.40;99.90
4687;DHT22;2357;47.316;-1.348;2023-04-24T11:45:18;14.60;99.90
4687;DHT22;2357;47.316;-1.348;2023-04-24T11:47:44;14.80;99.90
4687;DHT22;2357;47.316;-1.348;2023-04-24T11:50:15;15.40;99.90
4687;DHT22;2357;47.316;-1.348;2023-04-24T11:52:45;15.30;99.90
4687;DHT22;2357;47.316;-1.348;2023-04-24T11:57:43;15.20;99.90
4687;DHT22;2357;47.316;-1.348;2023-04-24T12:00:22;15.20;99.90
4687;DHT22;2357;47.316;-1.348;2023-04-24T12:02:49;15.40;99.90
4687;DHT22;2357;47.316;-1.348;2023-04-24T12:05:26;15.60;99.90
4687;DHT22;2357;47.316;-1.348;2023-04-24T12:07:52;15.60;99.90
4687;DHT22;2357;47.316;-1.348;2023-04-24T12:10:29;15.50;99.90
4687;DHT22;2357;47.316;-1.348;2023-04-24T12:12:56;15.80;99.90
4687;DHT22;2357;47.316;-1.348;2023-04-24T12:15:22;16.20;99.90
4687;DHT22;2357;47.316;-1.348;2023-04-24T12:17:51;16.20;99.90
4687;DHT22;2357;47.316;-1.348;2023-04-24T12:20:17;15.90;99.90
4687;DHT22;2357;47.316;-1.348;2023-04-24T12:25:17;15.60;99.90
4687;DHT22;2357;47.316;-1.348;2023-04-24T12:27:51;15.30;99.90
4687;DHT22;2357;47.316;-1.348;2023-04-24T12:30:18;15.40;99.90
4687;DHT22;2357;47.316;-1.348;2023-04-24T12:32:48;15.80;99.90
4687;DHT22;2357;47.316;-1.348;2023-04-24T12:35:24;16.00;99.90
4687;DHT22;2357;47.316;-1.348;2023-04-24T12:37:50;16.10;99.90
4687;DHT22;2357;47.316;-1.348;2023-04-24T12:40:17;15.90;99.90
4687;DHT22;2357;47.316;-1.348;2023-04-24T12:42:48;15.70;99.90
4687;DHT22;2357;47.316;-1.348;2023-04-24T12:45:16;15.80;99.90
4687;DHT22;2357;47.316;-1.348;2023-04-24T12:47:42;16.20;99.90
4687;DHT22;2357;47.316;-1.348;2023-04-24T12:50:10;16.90;99.90
4687;DHT22;2357;47.316;-1.348;2023-04-24T12:52:37;16.90;99.90
4687;DHT22;2357;47.316;-1.348;2023-04-24T12:55:03;16.40;99.90
4687;DHT22;2357;47.316;-1.348;2023-04-24T12:57:30;16.30;99.90
4687;DHT22;2357;47.316;-1.348;2023-04-24T12:59:58;16.40;99.90
4687;DHT22;2357;47.316;-1.348;2023-04-24T13:02:28;16.30;99.90
4687;DHT22;2357;47.316;-1.348;2023-04-24T13:04:58;16.30;99.90
4687;DHT22;2357;47.316;-1.348;2023-04-24T13:07:24;16.30;99.90
4687;DHT22;2357;47.316;-1.348;2023-04-24T13:09:51;16.60;99.90
4687;DHT22;2357;47.316;-1.348;2023-04-24T13:12:17;16.90;99.90
4687;DHT22;2357;47.316;-1.348;2023-04-24T13:14:43;16.70;99.90
4687;DHT22;2357;47.316;-1.348;2023-04-24T13:17:08;16.50;99.90
4687;DHT22;2357;47.316;-1.348;2023-04-24T13:19:41;16.30;99.90
4687;DHT22;2357;47.316;-1.348;2023-04-24T13:22:10;16.10;99.90
4687;DHT22;2357;47.316;-1.348;2023-04-24T13:24:37;16.10;99.90
4687;DHT22;2357;47.316;-1.348;2023-04-24T13:27:03;16.10;99.90
4687;DHT22;2357;47.316;-1.348;2023-04-24T13:29:29;16.00;99.90
4687;DHT22;2357;47.316;-1.348;2023-04-24T13:31:55;16.20;99.90
4687;DHT22;2357;47.316;-1.348;2023-04-24T13:34:22;16.20;99.90
4687;DHT22;2357;47.316;-1.348;2023-04-24T13:36:55;16.20;99.90
4687;DHT22;2357;47.316;-1.348;2023-04-24T13:39:22;16.20;99.90
4687;DHT22;2357;47.316;-1.348;2023-04-24T13:41:48;16.30;99.90
4687;DHT22;2357;47.316;-1.348;2023-04-24T13:44:18;16.40;99.90
4687;DHT22;2357;47.316;-1.348;2023-04-24T13:46:45;16.30;99.90
4687;DHT22;2357;47.316;-1.348;2023-04-24T13:49:12;16.40;99.90
4687;DHT22;2357;47.316;-1.348;2023-04-24T13:51:38;16.30;99.90
4687;DHT22;2357;47.316;-1.348;2023-04-24T13:54:03;16.90;99.90
4687;DHT22;2357;47.316;-1.348;2023-04-24T13:56:29;17.30;99.90
4687;DHT22;2357;47.316;-1.348;2023-04-24T13:58:55;17.60;99.90
4687;DHT22;2357;47.316;-1.348;2023-04-24T14:01:21;17.90;99.90
4687;DHT22;2357;47.316;-1.348;2023-04-24T14:03:55;18.30;99.90
4687;DHT22;2357;47.316;-1.348;2023-04-24T14:06:21;18.10;99.90
4687;DHT22;2357;47.316;-1.348;2023-04-24T14:08:49;18.60;99.90
4687;DHT22;2357;47.316;-1.348;2023-04-24T14:11:16;18.90;99.90
4687;DHT22;2357;47.316;-1.348;2023-04-24T14:13:42;18.80;99.90
4687;DHT22;2357;47.316;-1.348;2023-04-24T14:16:08;18.20;99.90
4687;DHT22;2357;47.316;-1.348;2023-04-24T14:18:33;17.90;99.90
4687;DHT22;2357;47.316;-1.348;2023-04-24T14:20:59;16.90;99.90
4687;DHT22;2357;47.316;-1.348;2023-04-24T14:23:26;17.00;99.90
4687;DHT22;2357;47.316;-1.348;2023-04-24T14:25:52;17.00;99.90
4687;DHT22;2357;47.316;-1.348;2023-04-24T14:28:19;16.90;99.90
4687;DHT22;2357;47.316;-1.348;2023-04-24T14:30:45;17.60;99.90
4687;DHT22;2357;47.316;-1.348;2023-04-24T14:33:11;18.60;99.90
4687;DHT22;2357;47.316;-1.348;2023-04-24T14:35:38;18.40;99.90
4687;DHT22;2357;47.316;-1.348;2023-04-24T14:38:04;17.70;99.90
4687;DHT22;2357;47.316;-1.348;2023-04-24T14:40:29;18.00;99.90
4687;DHT22;2357;47.316;-1.348;2023-04-24T14:42:56;18.70;99.90
4687;DHT22;2357;47.316;-1.348;2023-04-24T14:45:23;19.20;99.90
4687;DHT22;2357;47.316;-1.348;2023-04-24T14:47:49;18.60;99.90
4687;DHT22;2357;47.316;-1.348;2023-04-24T14:50:15;18.70;99.90
4687;DHT22;2357;47.316;-1.348;2023-04-24T14:52:40;18.20;99.90
4687;DHT22;2357;47.316;-1.348;2023-04-24T14:55:06;19.20;99.90
4687;DHT22;2357;47.316;-1.348;2023-04-24T14:57:35;19.30;99.90
4687;DHT22;2357;47.316;-1.348;2023-04-24T15:00:03;19.00;99.90
4687;DHT22;2357;47.316;-1.348;2023-04-24T15:02:30;19.20;99.90
4687;DHT22;2357;47.316;-1.348;2023-04-24T15:04:56;19.50;99.90
4687;DHT22;2357;47.316;-1.348;2023-04-24T15:07:21;19.60;99.90
4687;DHT22;2357;47.316;-1.348;2023-04-24T15:09:47;18.80;99.90
4687;DHT22;2357;47.316;-1.348;2023-04-24T15:12:13;18.80;99.90
4687;DHT22;2357;47.316;-1.348;2023-04-24T15:14:38;18.20;99.90
4687;DHT22;2357;47.316;-1.348;2023-04-24T15:17:04;18.00;99.90
4687;DHT22;2357;47.316;-1.348;2023-04-24T15:19:30;18.00;99.90
4687;DHT22;2357;47.316;-1.348;2023-04-24T15:21:56;17.90;99.90
4687;DHT22;2357;47.316;-1.348;2023-04-24T15:24:21;17.40;99.90
4687;DHT22;2357;47.316;-1.348;2023-04-24T15:26:47;17.50;99.90
4687;DHT22;2357;47.316;-1.348;2023-04-24T15:29:13;18.00;99.90
4687;DHT22;2357;47.316;-1.348;2023-04-24T15:31:38;18.40;99.90
4687;DHT22;2357;47.316;-1.348;2023-04-24T15:34:05;19.10;99.90
4687;DHT22;2357;47.316;-1.348;2023-04-24T15:36:31;19.20;99.90
4687;DHT22;2357;47.316;-1.348;2023-04-24T15:38:57;19.40;99.90
4687;DHT22;2357;47.316;-1.348;2023-04-24T15:41:23;19.20;99.90
4687;DHT22;2357;47.316;-1.348;2023-04-24T15:43:49;18.90;99.90
4687;DHT22;2357;47.316;-1.348;2023-04-24T15:46:15;18.90;99.90
4687;DHT22;2357;47.316;-1.348;2023-04-24T15:48:42;18.60;99.90
4687;DHT22;2357;47.316;-1.348;2023-04-24T15:51:07;18.10;99.90
4687;DHT22;2357;47.316;-1.348;2023-04-24T15:53:33;18.10;99.90
4687;DHT22;2357;47.316;-1.348;2023-04-24T15:55:59;18.00;99.90
4687;DHT22;2357;47.316;-1.348;2023-04-24T15:58:24;17.90;99.90
4687;DHT22;2357;47.316;-1.348;2023-04-24T16:00:50;17.70;99.90
4687;DHT22;2357;47.316;-1.348;2023-04-24T16:03:19;17.80;99.90
4687;DHT22;2357;47.316;-1.348;2023-04-24T16:05:44;18.00;99.90
4687;DHT22;2357;47.316;-1.348;2023-04-24T16:08:10;18.20;99.90